createdAt,value
2018-01-07T00:00:16.752Z,5.1
2018-01-07T00:01:25.276Z,5.06
2018-01-07T00:02:34.731Z,4.95
2018-01-07T00:03:43.259Z,5.08
2018-01-07T00:04:52.319Z,5.02
2018-01-07T00:06:01.657Z,4.98
2018-01-07T00:07:10.369Z,5.06
2018-01-07T00:08:18.898Z,5.09
2018-01-07T00:09:27.955Z,4.98
2018-01-07T00:10:36.752Z,5.03
2018-01-07T00:11:45.814Z,4.95
2018-01-07T00:12:54.878Z,5.06
2018-01-07T00:14:03.676Z,5.09
2018-01-07T00:15:12.482Z,4.98
2018-01-07T00:16:21.272Z,5.09
2018-01-07T00:17:29.801Z,5.06
2018-01-07T00:18:39.117Z,5.02
2018-01-07T00:19:48.179Z,4.94
2018-01-07T00:20:56.978Z,5.05
2018-01-07T00:22:05.774Z,5
2018-01-07T00:23:14.310Z,5.08
2018-01-07T00:24:23.106Z,5.1
2018-01-07T00:25:32.434Z,5.09
2018-01-07T00:26:41.232Z,5.03
2018-01-07T00:27:49.761Z,5.06
2018-01-07T00:28:58.549Z,5.09
2018-01-07T00:30:07.346Z,5.1
2018-01-07T00:31:16.141Z,5.06
2018-01-07T00:32:25.469Z,4.98
2018-01-07T00:33:34.519Z,4.95
2018-01-07T00:34:43.042Z,4.92
2018-01-07T00:35:51.819Z,4.98
2018-01-07T00:37:01.125Z,4.97
2018-01-07T00:38:10.442Z,4.87
2018-01-07T00:39:19.222Z,4.94
2018-01-07T00:40:28.274Z,4.9
2018-01-07T00:41:37.584Z,4.88
2018-01-07T00:42:46.364Z,4.85
2018-01-07T00:43:54.887Z,4.92
2018-01-07T00:45:03.671Z,4.94
2018-01-07T00:46:12.454Z,4.91
2018-01-07T00:47:21.510Z,4.91
2018-01-07T00:48:30.029Z,4.91
2018-01-07T00:49:38.809Z,4.94
2018-01-07T00:50:47.858Z,4.91
2018-01-07T00:51:56.636Z,4.92
2018-01-07T00:53:05.682Z,4.91
2018-01-07T00:54:14.200Z,4.9
2018-01-07T00:55:23.246Z,4.92
2018-01-07T00:56:32.026Z,4.87
2018-01-07T00:57:40.539Z,4.98
2018-01-07T00:58:49.055Z,4.94
2018-01-07T00:59:57.578Z,4.9
2018-01-07T01:01:06.633Z,4.91
2018-01-07T01:02:15.419Z,4.88
2018-01-07T01:03:24.197Z,4.87
2018-01-07T01:04:32.977Z,4.78
2018-01-07T01:05:42.026Z,4.75
2018-01-07T01:06:50.802Z,4.79
2018-01-07T01:07:59.327Z,4.88
2018-01-07T01:09:08.645Z,4.75
2018-01-07T01:10:17.430Z,4.83
2018-01-07T01:11:26.476Z,4.85
2018-01-07T01:12:35.268Z,4.83
2018-01-07T01:13:44.046Z,4.75
2018-01-07T01:14:52.559Z,4.87
2018-01-07T01:16:01.602Z,4.95
2018-01-07T01:17:10.120Z,4.9
2018-01-07T01:18:18.902Z,4.84
2018-01-07T01:19:27.950Z,4.9
2018-01-07T01:20:36.461Z,4.92
2018-01-07T01:21:44.979Z,4.94
2018-01-07T01:22:53.501Z,4.97
2018-01-07T01:24:02.020Z,4.97
2018-01-07T01:25:10.811Z,4.94
2018-01-07T01:26:19.858Z,4.95
2018-01-07T01:27:28.638Z,4.91
2018-01-07T01:28:37.424Z,4.9
2018-01-07T01:29:46.205Z,5
2018-01-07T01:30:55.251Z,4.94
2018-01-07T01:32:03.769Z,4.88
2018-01-07T01:33:12.552Z,4.85
2018-01-07T01:34:21.072Z,4.9
2018-01-07T01:35:30.122Z,4.94
2018-01-07T01:36:38.903Z,4.78
2018-01-07T01:37:47.698Z,4.94
2018-01-07T01:38:56.214Z,4.9
2018-01-07T01:40:04.727Z,4.85
2018-01-07T01:41:13.520Z,4.94
2018-01-07T01:42:22.298Z,4.95
2018-01-07T01:43:31.098Z,4.9
2018-01-07T01:44:40.419Z,4.88
2018-01-07T01:45:49.479Z,4.91
2018-01-07T01:46:58.259Z,4.88
2018-01-07T01:48:06.778Z,4.88
2018-01-07T01:49:15.823Z,4.84
2018-01-07T01:50:24.603Z,4.91
2018-01-07T01:51:33.652Z,4.97
2018-01-07T01:52:42.167Z,4.78
2018-01-07T01:53:50.949Z,4.88
2018-01-07T01:54:59.998Z,4.88
2018-01-07T01:56:08.780Z,4.85
2018-01-07T01:57:17.297Z,4.85
2018-01-07T01:58:25.818Z,4.87
2018-01-07T01:59:34.610Z,4.85
2018-01-07T02:00:43.386Z,5
2018-01-07T02:01:51.906Z,4.83
2018-01-07T02:03:00.680Z,4.84
2018-01-07T02:04:09.471Z,4.87
2018-01-07T02:05:17.989Z,4.85
2018-01-07T02:06:27.035Z,4.9
2018-01-07T02:07:36.357Z,4.88
2018-01-07T02:08:45.146Z,4.79
2018-01-07T02:09:53.923Z,4.84
2018-01-07T02:11:02.441Z,4.88
2018-01-07T02:12:11.224Z,4.84
2018-01-07T02:13:20.541Z,4.78
2018-01-07T02:14:29.587Z,4.83
2018-01-07T02:15:38.364Z,4.76
2018-01-07T02:16:47.148Z,4.84
2018-01-07T02:17:55.932Z,4.78
2018-01-07T02:19:04.982Z,4.88
2018-01-07T02:20:13.499Z,4.79
2018-01-07T02:21:22.273Z,4.83
2018-01-07T02:22:30.792Z,4.85
2018-01-07T02:23:39.843Z,4.87
2018-01-07T02:24:48.625Z,4.85
2018-01-07T02:25:57.145Z,4.79
2018-01-07T02:27:05.924Z,4.75
2018-01-07T02:28:14.704Z,4.84
2018-01-07T02:29:23.222Z,4.84
2018-01-07T02:30:32.004Z,4.74
2018-01-07T02:31:40.787Z,4.85
2018-01-07T02:32:49.569Z,4.83
2018-01-07T02:33:58.358Z,4.76
2018-01-07T02:35:07.411Z,4.83
2018-01-07T02:36:16.198Z,4.95
2018-01-07T02:37:24.998Z,4.85
2018-01-07T02:38:34.047Z,4.83
2018-01-07T02:39:42.571Z,4.79
2018-01-07T02:40:51.352Z,4.84
2018-01-07T02:42:00.402Z,4.88
2018-01-07T02:43:09.186Z,4.85
2018-01-07T02:44:18.233Z,4.84
2018-01-07T02:45:26.752Z,4.91
2018-01-07T02:46:36.065Z,4.83
2018-01-07T02:47:45.380Z,4.85
2018-01-07T02:48:54.162Z,4.83
2018-01-07T02:50:02.680Z,4.83
2018-01-07T02:51:11.463Z,4.79
2018-01-07T02:52:20.246Z,4.9
2018-01-07T02:53:29.031Z,4.79
2018-01-07T02:54:37.543Z,4.76
2018-01-07T02:55:46.325Z,4.83
2018-01-07T02:56:54.845Z,4.91
2018-01-07T02:58:03.627Z,4.85
2018-01-07T02:59:12.144Z,4.84
2018-01-07T03:00:20.937Z,4.83
2018-01-07T03:01:29.986Z,4.79
2018-01-07T03:02:38.773Z,4.85
2018-01-07T03:03:47.292Z,4.83
2018-01-07T03:04:56.076Z,4.83
2018-01-07T03:06:05.130Z,4.88
2018-01-07T03:07:13.915Z,4.84
2018-01-07T03:08:23.231Z,4.79
2018-01-07T03:09:32.548Z,4.91
2018-01-07T03:10:41.062Z,4.84
2018-01-07T03:11:49.894Z,4.83
2018-01-07T03:12:58.676Z,4.76
2018-01-07T03:14:07.459Z,4.91
2018-01-07T03:15:16.507Z,4.91
2018-01-07T03:16:25.550Z,4.88
2018-01-07T03:17:34.336Z,4.91
2018-01-07T03:18:42.852Z,4.84
2018-01-07T03:19:51.897Z,4.76
2018-01-07T03:21:01.215Z,4.9
2018-01-07T03:22:09.995Z,4.9
2018-01-07T03:23:18.513Z,4.9
2018-01-07T03:24:27.569Z,4.76
2018-01-07T03:25:36.354Z,4.94
2018-01-07T03:26:44.867Z,4.94
2018-01-07T03:27:53.381Z,4.9
2018-01-07T03:29:01.901Z,4.94
2018-01-07T03:30:10.422Z,4.91
2018-01-07T03:31:19.202Z,4.87
2018-01-07T03:32:28.253Z,4.92
2018-01-07T03:33:37.038Z,4.97
2018-01-07T03:34:46.615Z,4.9
2018-01-07T03:35:55.135Z,4.95
2018-01-07T03:37:03.650Z,4.91
2018-01-07T03:38:12.166Z,4.88
2018-01-07T03:39:20.685Z,4.97
2018-01-07T03:40:29.516Z,4.92
2018-01-07T03:41:38.565Z,4.91
2018-01-07T03:42:47.611Z,4.91
2018-01-07T03:43:56.655Z,4.9
2018-01-07T03:45:05.440Z,4.91
2018-01-07T03:46:14.220Z,4.88
2018-01-07T03:47:22.736Z,4.91
2018-01-07T03:48:31.518Z,4.97
2018-01-07T03:49:40.033Z,4.92
2018-01-07T03:50:49.343Z,4.94
2018-01-07T03:51:58.659Z,4.9
2018-01-07T03:53:07.177Z,4.88
2018-01-07T03:54:16.227Z,4.94
2018-01-07T03:55:25.011Z,4.92
2018-01-07T03:56:33.531Z,4.95
2018-01-07T03:57:42.588Z,4.9
2018-01-07T03:58:51.634Z,4.94
2018-01-07T04:00:00.149Z,4.91
2018-01-07T04:01:08.935Z,4.94
2018-01-07T04:02:17.989Z,4.91
2018-01-07T04:03:26.782Z,4.85
2018-01-07T04:04:35.828Z,4.88
2018-01-07T04:05:44.611Z,4.88
2018-01-07T04:06:53.392Z,4.9
2018-01-07T04:08:01.907Z,4.88
2018-01-07T04:09:10.686Z,4.94
2018-01-07T04:10:19.487Z,4.91
2018-01-07T04:11:28.271Z,4.92
2018-01-07T04:12:36.788Z,4.9
2018-01-07T04:13:46.097Z,4.9
2018-01-07T04:14:55.179Z,4.92
2018-01-07T04:16:03.962Z,4.9
2018-01-07T04:17:12.479Z,4.95
2018-01-07T04:18:21.792Z,4.94
2018-01-07T04:19:30.577Z,4.91
2018-01-07T04:20:39.094Z,4.94
2018-01-07T04:21:47.885Z,4.9
2018-01-07T04:22:56.929Z,4.97
2018-01-07T04:24:05.978Z,4.94
2018-01-07T04:25:14.498Z,4.88
2018-01-07T04:26:23.545Z,4.87
2018-01-07T04:27:32.063Z,4.83
2018-01-07T04:28:41.115Z,4.95
2018-01-07T04:29:50.161Z,4.92
2018-01-07T04:30:58.945Z,4.92
2018-01-07T04:32:07.728Z,4.75
2018-01-07T04:33:17.043Z,4.84
2018-01-07T04:34:25.568Z,4.78
2018-01-07T04:35:34.089Z,4.9
2018-01-07T04:36:42.609Z,4.91
2018-01-07T04:37:51.384Z,4.79
2018-01-07T04:39:00.428Z,4.94
2018-01-07T04:40:09.205Z,4.95
2018-01-07T04:41:17.983Z,4.94
2018-01-07T04:42:26.771Z,4.91
2018-01-07T04:43:35.552Z,4.9
2018-01-07T04:44:44.073Z,4.91
2018-01-07T04:45:53.119Z,4.88
2018-01-07T04:47:01.639Z,4.91
2018-01-07T04:48:10.160Z,4.87
2018-01-07T04:49:18.938Z,4.88
2018-01-07T04:50:27.452Z,4.91
2018-01-07T04:51:35.972Z,4.83
2018-01-07T04:52:44.755Z,4.9
2018-01-07T04:53:54.069Z,4.84
2018-01-07T04:55:02.843Z,4.91
2018-01-07T04:56:11.627Z,4.94
2018-01-07T04:57:20.420Z,4.97
2018-01-07T04:58:28.929Z,4.83
2018-01-07T04:59:37.970Z,4.87
2018-01-07T05:00:46.487Z,4.83
2018-01-07T05:01:55.538Z,4.83
2018-01-07T05:03:04.061Z,4.83
2018-01-07T05:04:12.840Z,4.78
2018-01-07T05:05:21.626Z,4.83
2018-01-07T05:06:30.932Z,4.84
2018-01-07T05:07:39.972Z,4.92
2018-01-07T05:08:48.755Z,4.85
2018-01-07T05:09:57.276Z,4.84
2018-01-07T05:11:06.058Z,4.85
2018-01-07T05:12:14.840Z,4.83
2018-01-07T05:13:23.365Z,4.83
2018-01-07T05:14:32.411Z,4.9
2018-01-07T05:15:41.195Z,4.78
2018-01-07T05:16:49.981Z,4.87
2018-01-07T05:17:58.766Z,4.87
2018-01-07T05:19:07.541Z,4.78
2018-01-07T05:20:16.059Z,4.76
2018-01-07T05:21:25.107Z,4.76
2018-01-07T05:22:33.885Z,4.88
2018-01-07T05:23:42.675Z,4.88
2018-01-07T05:24:51.193Z,4.72
2018-01-07T05:25:59.978Z,4.83
2018-01-07T05:27:08.497Z,4.79
2018-01-07T05:28:17.028Z,4.78
2018-01-07T05:29:25.540Z,4.84
2018-01-07T05:30:34.056Z,4.88
2018-01-07T05:31:42.836Z,4.78
2018-01-07T05:32:51.621Z,4.83
2018-01-07T05:34:00.673Z,4.75
2018-01-07T05:35:09.719Z,4.74
2018-01-07T05:36:18.500Z,4.74
2018-01-07T05:37:27.284Z,4.75
2018-01-07T05:38:36.329Z,4.71
2018-01-07T05:39:44.852Z,4.74
2018-01-07T05:40:53.903Z,4.72
2018-01-07T05:42:02.951Z,4.75
2018-01-07T05:43:12.012Z,4.76
2018-01-07T05:44:20.781Z,4.76
2018-01-07T05:45:29.568Z,4.83
2018-01-07T05:46:38.348Z,4.79
2018-01-07T05:47:47.137Z,4.79
2018-01-07T05:48:55.916Z,4.79
2018-01-07T05:50:04.698Z,4.65
2018-01-07T05:51:14.052Z,4.76
2018-01-07T05:52:24.122Z,4.76
2018-01-07T05:53:32.902Z,4.66
2018-01-07T05:54:41.420Z,4.74
2018-01-07T05:55:50.208Z,4.78
2018-01-07T05:56:59.523Z,4.75
2018-01-07T05:58:08.305Z,4.65
2018-01-07T05:59:17.085Z,4.76
2018-01-07T06:00:26.144Z,4.76
2018-01-07T06:01:35.188Z,4.69
2018-01-07T06:02:44.766Z,4.68
2018-01-07T06:03:53.279Z,4.76
2018-01-07T06:05:01.796Z,4.83
2018-01-07T06:06:10.314Z,4.66
2018-01-07T06:07:19.359Z,4.64
2018-01-07T06:08:28.148Z,4.69
2018-01-07T06:09:36.668Z,4.74
2018-01-07T06:10:45.447Z,4.66
2018-01-07T06:11:54.233Z,4.72
2018-01-07T06:13:02.744Z,4.72
2018-01-07T06:14:11.262Z,4.65
2018-01-07T06:15:20.312Z,4.69
2018-01-07T06:16:29.093Z,4.76
2018-01-07T06:17:37.871Z,4.68
2018-01-07T06:18:46.656Z,4.76
2018-01-07T06:19:55.434Z,4.65
2018-01-07T06:21:04.216Z,4.64
2018-01-07T06:22:13.269Z,4.71
2018-01-07T06:23:22.585Z,4.58
2018-01-07T06:24:31.363Z,4.66
2018-01-07T06:25:40.420Z,4.66
2018-01-07T06:26:49.469Z,4.69
2018-01-07T06:27:58.255Z,4.64
2018-01-07T06:29:07.037Z,4.68
2018-01-07T06:30:15.813Z,4.64
2018-01-07T06:31:24.600Z,4.6
2018-01-07T06:32:33.381Z,4.64
2018-01-07T06:33:41.895Z,4.61
2018-01-07T06:34:50.677Z,4.6
2018-01-07T06:35:59.456Z,4.61
2018-01-07T06:37:08.510Z,4.61
2018-01-07T06:38:17.316Z,4.64
2018-01-07T06:39:25.834Z,4.54
2018-01-07T06:40:34.887Z,4.53
2018-01-07T06:41:43.401Z,4.53
2018-01-07T06:42:52.181Z,4.57
2018-01-07T06:44:00.700Z,4.53
2018-01-07T06:45:09.483Z,4.5
2018-01-07T06:46:18.264Z,4.51
2018-01-07T06:47:26.777Z,4.47
2018-01-07T06:48:35.301Z,4.48
2018-01-07T06:49:44.083Z,4.44
2018-01-07T06:50:53.136Z,4.47
2018-01-07T06:52:02.185Z,4.5
2018-01-07T06:53:11.234Z,4.47
2018-01-07T06:54:19.754Z,4.35
2018-01-07T06:55:28.534Z,4.4
2018-01-07T06:56:37.320Z,4.39
2018-01-07T06:57:46.360Z,4.38
2018-01-07T06:58:55.135Z,4.38
2018-01-07T07:00:04.178Z,4.33
2018-01-07T07:01:13.234Z,4.38
2018-01-07T07:02:22.278Z,4.35
2018-01-07T07:03:31.329Z,4.33
2018-01-07T07:04:40.371Z,4.35
2018-01-07T07:05:48.886Z,4.3
2018-01-07T07:06:57.665Z,4.2
2018-01-07T07:08:06.453Z,4.2
2018-01-07T07:09:15.236Z,4.24
2018-01-07T07:10:24.025Z,4.2
2018-01-07T07:11:32.808Z,4.21
2018-01-07T07:12:41.592Z,4.26
2018-01-07T07:13:50.639Z,4.3
2018-01-07T07:14:59.154Z,4.28
2018-01-07T07:16:08.202Z,4.24
2018-01-07T07:17:16.987Z,4.18
2018-01-07T07:18:26.034Z,4.17
2018-01-07T07:19:35.086Z,4.18
2018-01-07T07:20:44.136Z,4.14
2018-01-07T07:21:53.180Z,4.14
2018-01-07T07:23:01.961Z,4.21
2018-01-07T07:24:10.752Z,4.17
2018-01-07T07:25:19.530Z,4.15
2018-01-07T07:26:28.310Z,4.1
2018-01-07T07:27:37.096Z,4.12
2018-01-07T07:28:45.884Z,4.12
2018-01-07T07:29:54.664Z,4.18
2018-01-07T07:31:03.453Z,4.04
2018-01-07T07:32:12.236Z,4.1
2018-01-07T07:33:21.020Z,4.08
2018-01-07T07:34:29.797Z,4.1
2018-01-07T07:35:38.313Z,4.07
2018-01-07T07:36:47.361Z,4.03
2018-01-07T07:37:56.143Z,3.93
2018-01-07T07:39:04.918Z,3.97
2018-01-07T07:40:13.699Z,4.11
2018-01-07T07:41:22.218Z,4.07
2018-01-07T07:42:31.265Z,4.04
2018-01-07T07:43:40.307Z,4.02
2018-01-07T07:44:48.827Z,3.94
2018-01-07T07:45:57.345Z,3.96
2018-01-07T07:47:06.133Z,3.99
2018-01-07T07:48:14.913Z,3.86
2018-01-07T07:49:23.433Z,3.92
2018-01-07T07:50:32.222Z,3.81
2018-01-07T07:51:40.737Z,3.76
2018-01-07T07:52:49.535Z,3.72
2018-01-07T07:53:58.315Z,3.69
2018-01-07T07:55:06.835Z,3.66
2018-01-07T07:56:16.153Z,3.67
2018-01-07T07:57:24.667Z,3.64
2018-01-07T07:58:33.708Z,3.6
2018-01-07T07:59:42.500Z,3.56
2018-01-07T08:00:51.285Z,3.56
2018-01-07T08:02:00.126Z,3.45
2018-01-07T08:03:08.856Z,3.46
2018-01-07T08:04:17.903Z,3.4
2018-01-07T08:05:26.687Z,3.42
2018-01-07T08:06:35.465Z,3.4
2018-01-07T08:07:43.984Z,3.3
2018-01-07T08:08:52.504Z,3.34
2018-01-07T08:10:01.077Z,3.3
2018-01-07T08:11:09.865Z,3.23
2018-01-07T08:12:18.647Z,3.19
2018-01-07T08:13:27.421Z,3.23
2018-01-07T08:14:35.940Z,3.16
2018-01-07T08:15:44.987Z,3.16
2018-01-07T08:16:53.769Z,3.19
2018-01-07T08:18:02.285Z,3.17
2018-01-07T08:19:11.341Z,3.14
2018-01-07T08:20:20.132Z,3.08
2018-01-07T08:21:29.176Z,3.11
2018-01-07T08:22:37.958Z,3.13
2018-01-07T08:23:46.743Z,3.05
2018-01-07T08:24:55.532Z,3.09
2018-01-07T08:26:04.048Z,3.03
2018-01-07T08:27:12.835Z,3.08
2018-01-07T08:28:21.883Z,2.98
2018-01-07T08:29:30.932Z,3.05
2018-01-07T08:30:39.711Z,3.05
2018-01-07T08:31:48.495Z,3.09
2018-01-07T08:32:57.273Z,2.99
2018-01-07T08:34:06.316Z,3.01
2018-01-07T08:35:14.838Z,2.99
2018-01-07T08:36:23.621Z,2.93
2018-01-07T08:37:32.928Z,2.93
2018-01-07T08:38:41.709Z,2.95
2018-01-07T08:39:50.487Z,2.93
2018-01-07T08:40:58.999Z,2.96
2018-01-07T08:42:07.777Z,2.9
2018-01-07T08:43:16.295Z,2.87
2018-01-07T08:44:25.347Z,2.91
2018-01-07T08:45:33.861Z,2.81
2018-01-07T08:46:42.907Z,2.81
2018-01-07T08:47:51.425Z,2.84
2018-01-07T08:48:59.940Z,2.78
2018-01-07T08:50:08.722Z,2.76
2018-01-07T08:51:17.774Z,2.85
2018-01-07T08:52:26.559Z,2.85
2018-01-07T08:53:36.092Z,2.88
2018-01-07T08:54:44.608Z,2.85
2018-01-07T08:55:53.406Z,2.73
2018-01-07T08:57:02.433Z,2.83
2018-01-07T08:58:12.006Z,2.84
2018-01-07T08:59:20.519Z,2.77
2018-01-07T09:00:29.308Z,2.81
2018-01-07T09:01:37.826Z,2.7
2018-01-07T09:02:46.604Z,2.73
2018-01-07T09:03:55.908Z,2.77
2018-01-07T09:05:04.425Z,2.69
2018-01-07T09:06:13.203Z,2.73
2018-01-07T09:07:21.979Z,2.72
2018-01-07T09:08:30.495Z,2.73
2018-01-07T09:09:39.307Z,2.72
2018-01-07T09:10:47.821Z,2.76
2018-01-07T09:11:56.604Z,2.7
2018-01-07T09:13:05.121Z,2.78
2018-01-07T09:14:13.638Z,2.7
2018-01-07T09:15:22.155Z,2.77
2018-01-07T09:16:30.938Z,2.78
2018-01-07T09:17:39.454Z,2.77
2018-01-07T09:18:47.970Z,2.72
2018-01-07T09:19:57.277Z,2.77
2018-01-07T09:21:06.061Z,2.83
2018-01-07T09:22:14.847Z,2.81
2018-01-07T09:23:23.360Z,2.85
2018-01-07T09:24:31.873Z,2.83
2018-01-07T09:25:40.673Z,2.84
2018-01-07T09:26:49.459Z,2.91
2018-01-07T09:27:58.242Z,2.9
2018-01-07T09:29:07.290Z,2.88
2018-01-07T09:30:15.805Z,2.85
2018-01-07T09:31:24.322Z,2.9
2018-01-07T09:32:32.836Z,2.95
2018-01-07T09:33:42.157Z,2.93
2018-01-07T09:34:50.948Z,2.95
2018-01-07T09:35:59.464Z,2.88
2018-01-07T09:37:08.251Z,3.01
2018-01-07T09:38:17.032Z,3.01
2018-01-07T09:39:25.815Z,3.01
2018-01-07T09:40:34.331Z,3.08
2018-01-07T09:41:43.387Z,3.02
2018-01-07T09:42:52.433Z,3.11
2018-01-07T09:44:01.477Z,3.01
2018-01-07T09:45:10.787Z,2.98
2018-01-07T09:46:19.831Z,3.09
2018-01-07T09:47:28.877Z,3.11
2018-01-07T09:48:37.657Z,3.13
2018-01-07T09:49:46.442Z,3.03
2018-01-07T09:50:55.490Z,3.08
2018-01-07T09:52:04.554Z,3.01
2018-01-07T09:53:13.071Z,3.13
2018-01-07T09:54:22.118Z,3.11
2018-01-07T09:55:31.434Z,3.16
2018-01-07T09:56:39.952Z,3.11
2018-01-07T09:57:48.735Z,3.14
2018-01-07T09:58:57.972Z,3.17
2018-01-07T10:00:06.758Z,3.16
2018-01-07T10:01:15.281Z,3.17
2018-01-07T10:02:23.798Z,3.13
2018-01-07T10:03:32.588Z,3.16
2018-01-07T10:04:41.101Z,3.09
2018-01-07T10:05:50.151Z,3.14
2018-01-07T10:06:58.663Z,3.16
2018-01-07T10:08:07.442Z,3.08
2018-01-07T10:09:16.039Z,3.09
2018-01-07T10:10:24.649Z,3.09
2018-01-07T10:11:33.220Z,3.13
2018-01-07T10:12:42.245Z,3.09
2018-01-07T10:13:51.067Z,3.13
2018-01-07T10:14:59.694Z,3.09
2018-01-07T10:16:08.516Z,3.02
2018-01-07T10:17:17.305Z,3.14
2018-01-07T10:18:25.816Z,3.11
2018-01-07T10:19:34.329Z,3.11
2018-01-07T10:20:42.845Z,3.2
2018-01-07T10:21:51.625Z,3.11
2018-01-07T10:23:00.407Z,3.11
2018-01-07T10:24:09.453Z,3.17
2018-01-07T10:25:17.971Z,3.16
2018-01-07T10:26:27.015Z,3.24
2018-01-07T10:27:36.062Z,3.14
2018-01-07T10:28:44.840Z,3.09
2018-01-07T10:29:53.882Z,3.16
2018-01-07T10:31:02.674Z,3.13
2018-01-07T10:32:11.459Z,3.09
2018-01-07T10:33:20.238Z,3.17
2018-01-07T10:34:28.755Z,3.19
2018-01-07T10:35:37.274Z,3.14
2018-01-07T10:36:46.049Z,3.13
2018-01-07T10:37:54.832Z,3.14
2018-01-07T10:39:03.877Z,3.14
2018-01-07T10:40:12.926Z,3.21
2018-01-07T10:41:22.505Z,3.19
2018-01-07T10:42:31.283Z,3.13
2018-01-07T10:43:40.070Z,3.16
2018-01-07T10:44:48.848Z,3.11
2018-01-07T10:45:57.633Z,3.14
2018-01-07T10:47:06.423Z,3.16
2018-01-07T10:48:15.207Z,3.06
2018-01-07T10:49:23.726Z,3.14
2018-01-07T10:50:32.239Z,3.11
2018-01-07T10:51:41.028Z,3.13
2018-01-07T10:52:49.810Z,3.13
2018-01-07T10:53:59.130Z,3.11
2018-01-07T10:55:07.914Z,3.16
2018-01-07T10:56:16.700Z,3.08
2018-01-07T10:57:25.742Z,3.16
2018-01-07T10:58:34.527Z,3.17
2018-01-07T10:59:43.846Z,3.26
2018-01-07T11:00:52.633Z,3.21
2018-01-07T11:02:01.692Z,3.19
2018-01-07T11:03:10.478Z,3.21
2018-01-07T11:04:19.532Z,3.23
2018-01-07T11:05:28.580Z,3.26
2018-01-07T11:06:37.363Z,3.29
2018-01-07T11:07:46.946Z,3.32
2018-01-07T11:08:55.460Z,3.39
2018-01-07T11:10:03.980Z,3.37
2018-01-07T11:11:12.764Z,3.39
2018-01-07T11:12:21.813Z,3.4
2018-01-07T11:13:30.858Z,3.4
2018-01-07T11:14:39.375Z,3.39
2018-01-07T11:15:48.417Z,3.43
2018-01-07T11:16:57.726Z,3.45
2018-01-07T11:18:06.245Z,3.43
2018-01-07T11:19:15.288Z,3.39
2018-01-07T11:20:24.338Z,3.42
2018-01-07T11:21:33.915Z,3.49
2018-01-07T11:22:42.436Z,3.49
2018-01-07T11:23:51.229Z,3.4
2018-01-07T11:25:00.016Z,3.48
2018-01-07T11:26:08.530Z,3.58
2018-01-07T11:27:17.307Z,3.56
2018-01-07T11:28:25.824Z,3.49
2018-01-07T11:29:34.620Z,3.54
2018-01-07T11:30:43.135Z,3.56
2018-01-07T11:31:51.916Z,3.56
2018-01-07T11:33:01.238Z,3.56
2018-01-07T11:34:10.027Z,3.56
2018-01-07T11:35:19.081Z,3.57
2018-01-07T11:36:28.129Z,3.64
2018-01-07T11:37:36.913Z,3.74
2018-01-07T11:38:45.432Z,3.6
2018-01-07T11:39:54.215Z,3.74
2018-01-07T11:41:03.530Z,3.78
2018-01-07T11:42:12.575Z,3.74
2018-01-07T11:43:21.351Z,3.82
2018-01-07T11:44:29.874Z,3.82
2018-01-07T11:45:39.192Z,3.86
2018-01-07T11:46:47.972Z,3.82
2018-01-07T11:47:56.754Z,3.86
2018-01-07T11:49:06.064Z,3.96
2018-01-07T11:50:15.116Z,3.97
2018-01-07T11:51:23.896Z,3.9
2018-01-07T11:52:32.678Z,3.82
2018-01-07T11:53:43.202Z,3.85
2018-01-07T11:54:51.991Z,3.92
2018-01-07T11:56:00.510Z,3.84
2018-01-07T11:57:09.560Z,3.86
2018-01-07T11:58:18.875Z,3.89
2018-01-07T11:59:27.658Z,3.9
2018-01-07T12:00:36.441Z,3.9
2018-01-07T12:01:46.019Z,3.86
2018-01-07T12:02:54.804Z,3.86
2018-01-07T12:04:03.588Z,3.92
2018-01-07T12:05:12.371Z,4.02
2018-01-07T12:06:21.166Z,4
2018-01-07T12:07:29.688Z,4.07
2018-01-07T12:08:38.209Z,4.04
2018-01-07T12:09:46.986Z,4.07
2018-01-07T12:10:56.030Z,4.03
2018-01-07T12:12:04.811Z,4.03
2018-01-07T12:13:13.599Z,4.04
2018-01-07T12:14:22.381Z,4.18
2018-01-07T12:15:30.906Z,4.1
2018-01-07T12:16:39.957Z,4.02
2018-01-07T12:17:48.734Z,4.11
2018-01-07T12:18:57.779Z,4.14
2018-01-07T12:20:06.570Z,4.14
2018-01-07T12:21:15.360Z,4.18
2018-01-07T12:22:24.460Z,4.14
2018-01-07T12:23:33.242Z,4.14
2018-01-07T12:24:42.297Z,4.12
2018-01-07T12:25:51.348Z,4.14
2018-01-07T12:27:00.393Z,4.11
2018-01-07T12:28:09.852Z,4.11
2018-01-07T12:29:18.630Z,4.12
2018-01-07T12:30:27.411Z,4.15
2018-01-07T12:31:36.206Z,4.11
2018-01-07T12:32:45.254Z,4.1
2018-01-07T12:33:54.035Z,4.11
2018-01-07T12:35:02.816Z,4.12
2018-01-07T12:36:12.132Z,4.18
2018-01-07T12:37:20.656Z,4.2
2018-01-07T12:38:29.726Z,4.17
2018-01-07T12:39:38.214Z,4.2
2018-01-07T12:40:46.994Z,4.2
2018-01-07T12:41:55.775Z,4.14
2018-01-07T12:43:04.296Z,4.14
2018-01-07T12:44:13.870Z,4.04
2018-01-07T12:45:23.465Z,4.12
2018-01-07T12:46:31.986Z,4.07
2018-01-07T12:47:40.775Z,4.14
2018-01-07T12:48:49.831Z,4.07
2018-01-07T12:49:58.614Z,4.17
2018-01-07T12:51:07.663Z,3.93
2018-01-07T12:52:16.445Z,4.04
2018-01-07T12:53:25.241Z,4.03
2018-01-07T12:54:34.296Z,4.15
2018-01-07T12:55:43.073Z,4.08
2018-01-07T12:56:51.854Z,3.94
2018-01-07T12:58:00.367Z,4.12
2018-01-07T12:59:08.881Z,4.04
2018-01-07T13:00:17.401Z,4.11
2018-01-07T13:01:25.922Z,4.17
2018-01-07T13:02:35.232Z,4.11
2018-01-07T13:03:43.757Z,3.97
2018-01-07T13:04:52.546Z,4.11
2018-01-07T13:06:01.331Z,4.07
2018-01-07T13:07:09.863Z,4.08
2018-01-07T13:08:19.187Z,4.11
2018-01-07T13:09:28.229Z,4.11
2018-01-07T13:10:37.012Z,4.08
2018-01-07T13:11:45.798Z,4
2018-01-07T13:12:54.587Z,4.03
2018-01-07T13:14:03.899Z,4.03
2018-01-07T13:15:12.685Z,4.03
2018-01-07T13:16:21.205Z,4.02
2018-01-07T13:17:30.259Z,4
2018-01-07T13:18:39.305Z,3.96
2018-01-07T13:19:47.820Z,4.02
2018-01-07T13:20:57.403Z,4.03
2018-01-07T13:22:06.181Z,4.03
2018-01-07T13:23:14.969Z,3.97
2018-01-07T13:24:23.486Z,4.03
2018-01-07T13:25:32.526Z,4.03
2018-01-07T13:26:41.314Z,4
2018-01-07T13:27:50.092Z,4.04
2018-01-07T13:28:58.885Z,4.03
2018-01-07T13:30:07.401Z,4.08
2018-01-07T13:31:16.184Z,4.03
2018-01-07T13:32:25.470Z,4.04
2018-01-07T13:33:34.780Z,4
2018-01-07T13:34:43.563Z,4.07
2018-01-07T13:35:52.344Z,4.11
2018-01-07T13:37:01.396Z,4.02
2018-01-07T13:38:10.445Z,4.11
2018-01-07T13:39:18.970Z,4.08
2018-01-07T13:40:27.759Z,4.12
2018-01-07T13:41:36.822Z,4
2018-01-07T13:42:45.343Z,4
2018-01-07T13:43:54.124Z,4.03
2018-01-07T13:45:03.174Z,4.03
2018-01-07T13:46:11.955Z,4.11
2018-01-07T13:47:20.735Z,4
2018-01-07T13:48:29.253Z,4.03
2018-01-07T13:49:38.298Z,3.96
2018-01-07T13:50:46.820Z,3.99
2018-01-07T13:51:55.344Z,3.99
2018-01-07T13:53:04.128Z,4.03
2018-01-07T13:54:12.909Z,4
2018-01-07T13:55:21.693Z,4
2018-01-07T13:56:30.479Z,4
2018-01-07T13:57:38.996Z,4.02
2018-01-07T13:58:48.042Z,3.99
2018-01-07T13:59:57.138Z,3.99
2018-01-07T14:01:06.136Z,3.99
2018-01-07T14:02:14.922Z,4.03
2018-01-07T14:03:23.703Z,3.93
2018-01-07T14:04:32.479Z,3.97
2018-01-07T14:05:41.259Z,3.92
2018-01-07T14:06:50.302Z,3.96
2018-01-07T14:07:58.818Z,3.96
2018-01-07T14:09:07.345Z,3.99
2018-01-07T14:10:15.864Z,3.92
2018-01-07T14:11:24.647Z,3.9
2018-01-07T14:12:33.432Z,3.99
2018-01-07T14:13:42.483Z,3.94
2018-01-07T14:14:51.018Z,3.96
2018-01-07T14:15:59.840Z,3.92
2018-01-07T14:17:08.640Z,3.92
2018-01-07T14:18:17.416Z,3.86
2018-01-07T14:19:26.476Z,3.9
2018-01-07T14:20:35.316Z,3.92
2018-01-07T14:21:44.109Z,3.99
2018-01-07T14:22:52.636Z,3.99
2018-01-07T14:24:01.425Z,3.9
2018-01-07T14:25:10.556Z,3.96
2018-01-07T14:26:19.085Z,3.96
2018-01-07T14:27:28.158Z,3.93
2018-01-07T14:28:36.679Z,3.93
2018-01-07T14:29:45.475Z,3.9
2018-01-07T14:30:54.834Z,3.89
2018-01-07T14:32:03.630Z,3.89
2018-01-07T14:33:12.431Z,3.92
2018-01-07T14:34:21.741Z,3.82
2018-01-07T14:35:30.794Z,3.81
2018-01-07T14:36:39.853Z,3.81
2018-01-07T14:37:48.677Z,3.85
2018-01-07T14:38:57.972Z,3.85
2018-01-07T14:40:06.776Z,3.76
2018-01-07T14:41:15.594Z,3.79
2018-01-07T14:42:24.659Z,3.78
2018-01-07T14:43:33.446Z,3.79
2018-01-07T14:44:41.962Z,3.74
2018-01-07T14:45:50.777Z,3.67
2018-01-07T14:46:59.558Z,3.81
2018-01-07T14:48:08.358Z,3.78
2018-01-07T14:49:16.880Z,3.69
2018-01-07T14:50:25.674Z,3.66
2018-01-07T14:51:34.496Z,3.61
2018-01-07T14:52:43.024Z,3.64
2018-01-07T14:53:51.824Z,3.64
2018-01-07T14:55:00.895Z,3.67
2018-01-07T14:56:09.692Z,3.51
2018-01-07T14:57:18.855Z,3.57
2018-01-07T14:58:27.645Z,3.46
2018-01-07T14:59:36.430Z,3.48
2018-01-07T15:00:44.964Z,3.49
2018-01-07T15:01:53.501Z,3.46
2018-01-07T15:03:02.556Z,3.49
2018-01-07T15:04:11.616Z,3.42
2018-01-07T15:05:20.194Z,3.42
2018-01-07T15:06:28.984Z,3.32
2018-01-07T15:07:38.339Z,3.35
2018-01-07T15:08:47.392Z,3.27
2018-01-07T15:09:55.922Z,3.27
2018-01-07T15:11:04.492Z,3.3
2018-01-07T15:12:13.011Z,3.29
2018-01-07T15:13:22.067Z,3.3
2018-01-07T15:14:31.123Z,3.23
2018-01-07T15:15:40.446Z,3.23
2018-01-07T15:16:49.501Z,3.29
2018-01-07T15:17:58.296Z,3.27
2018-01-07T15:19:06.842Z,3.23
2018-01-07T15:20:15.362Z,3.26